sensor_id;sensor_type;location;lat;lon;timestamp;temperature;humidity
23347;DHT22;36852;45.466;11.066;2023-07-22T00:02:09;25.20;99.90
23347;DHT22;36852;45.466;11.066;2023-07-22T00:04:37;25.10;99.90
23347;DHT22;36852;45.466;11.066;2023-07-22T00:07:05;25.10;99.90
23347;DHT22;36852;45.466;11.066;2023-07-22T00:09:33;25.00;99.90
23347;DHT22;36852;45.466;11.066;2023-07-22T00:12:02;25.00;99.90
23347;DHT22;36852;45.466;11.066;2023-07-22T00:14:30;24.90;99.90
23347;DHT22;36852;45.466;11.066;2023-07-22T00:16:58;24.90;99.90
23347;DHT22;36852;45.466;11.066;2023-07-22T00:19:27;24.90;99.90
23347;DHT22;36852;45.466;11.066;2023-07-22T00:21:55;24.90;99.90
23347;DHT22;36852;45.466;11.066;2023-07-22T00:24:23;24.90;99.90
23347;DHT22;36852;45.466;11.066;2023-07-22T00:26:50;24.90;99.90
23347;DHT22;36852;45.466;11.066;2023-07-22T00:29:19;24.80;99.90
23347;DHT22;36852;45.466;11.066;2023-07-22T00:31:46;24.80;99.90
23347;DHT22;36852;45.466;11.066;2023-07-22T00:34:15;24.90;99.90
23347;DHT22;36852;45.466;11.066;2023-07-22T00:36:43;24.90;99.90
23347;DHT22;36852;45.466;11.066;2023-07-22T00:39:12;24.80;99.90
23347;DHT22;36852;45.466;11.066;2023-07-22T00:41:41;24.80;99.90
23347;DHT22;36852;45.466;11.066;2023-07-22T00:44:12;24.80;99.90
23347;DHT22;36852;45.466;11.066;2023-07-22T00:46:43;24.80;99.90
23347;DHT22;36852;45.466;11.066;2023-07-22T00:49:14;24.80;99.90
23347;DHT22;36852;45.466;11.066;2023-07-22T00:51:42;24.80;99.90
23347;DHT22;36852;45.466;11.066;2023-07-22T00:54:10;24.70;99.90
23347;DHT22;36852;45.466;11.066;2023-07-22T00:56:40;24.70;99.90
23347;DHT22;36852;45.466;11.066;2023-07-22T00:59:09;24.70;99.90
23347;DHT22;36852;45.466;11.066;2023-07-22T01:01:38;24.70;99.90
23347;DHT22;36852;45.466;11.066;2023-07-22T01:04:06;24.60;99.90
23347;DHT22;36852;45.466;11.066;2023-07-22T01:06:35;24.60;99.90
23347;DHT22;36852;45.466;11.066;2023-07-22T01:09:05;24.60;99.90
23347;DHT22;36852;45.466;11.066;2023-07-22T01:11:34;24.60;99.90
23347;DHT22;36852;45.466;11.066;2023-07-22T01:14:02;24.60;99.90
23347;DHT22;36852;45.466;11.066;2023-07-22T01:16:31;24.60;99.90
23347;DHT22;36852;45.466;11.066;2023-07-22T01:18:59;24.60;99.90
23347;DHT22;36852;45.466;11.066;2023-07-22T01:21:29;24.60;99.90
23347;DHT22;36852;45.466;11.066;2023-07-22T01:24:00;24.60;99.90
23347;DHT22;36852;45.466;11.066;2023-07-22T01:26:28;24.60;99.90
23347;DHT22;36852;45.466;11.066;2023-07-22T01:29:07;24.60;99.90
23347;DHT22;36852;45.466;11.066;2023-07-22T01:31:37;24.60;99.90
23347;DHT22;36852;45.466;11.066;2023-07-22T01:34:05;24.50;99.90
23347;DHT22;36852;45.466;11.066;2023-07-22T01:36:34;24.60;99.90
23347;DHT22;36852;45.466;11.066;2023-07-22T01:39:02;24.60;99.90
23347;DHT22;36852;45.466;11.066;2023-07-22T01:41:30;24.50;99.90
23347;DHT22;36852;45.466;11.066;2023-07-22T01:43:58;24.50;99.90
23347;DHT22;36852;45.466;11.066;2023-07-22T01:46:27;24.50;99.90
23347;DHT22;36852;45.466;11.066;2023-07-22T01:48:56;24.50;99.90
23347;DHT22;36852;45.466;11.066;2023-07-22T01:51:24;24.50;99.90
23347;DHT22;36852;45.466;11.066;2023-07-22T01:53:55;24.50;99.90
23347;DHT22;36852;45.466;11.066;2023-07-22T01:56:24;24.50;99.90
23347;DHT22;36852;45.466;11.066;2023-07-22T01:58:53;24.50;99.90
23347;DHT22;36852;45.466;11.066;2023-07-22T02:01:21;24.50;99.90
23347;DHT22;36852;45.466;11.066;2023-07-22T02:03:48;24.50;99.90
23347;DHT22;36852;45.466;11.066;2023-07-22T02:06:17;24.40;99.90
23347;DHT22;36852;45.466;11.066;2023-07-22T02:08:45;24.40;99.90
23347;DHT22;36852;45.466;11.066;2023-07-22T02:11:13;24.40;99.90
23347;DHT22;36852;45.466;11.066;2023-07-22T02:13:44;24.50;99.90
23347;DHT22;36852;45.466;11.066;2023-07-22T02:16:12;24.40;99.90
23347;DHT22;36852;45.466;11.066;2023-07-22T02:18:40;24.50;99.90
23347;DHT22;36852;45.466;11.066;2023-07-22T02:21:09;24.50;99.90
23347;DHT22;36852;45.466;11.066;2023-07-22T02:23:38;24.50;99.90
23347;DHT22;36852;45.466;11.066;2023-07-22T02:26:06;24.50;99.90
23347;DHT22;36852;45.466;11.066;2023-07-22T02:28:35;24.40;99.90
23347;DHT22;36852;45.466;11.066;2023-07-22T02:31:03;24.40;99.90
23347;DHT22;36852;45.466;11.066;2023-07-22T02:33:34;24.50;99.90
23347;DHT22;36852;45.466;11.066;2023-07-22T02:36:02;24.50;99.90
23347;DHT22;36852;45.466;11.066;2023-07-22T02:38:31;24.40;99.90
23347;DHT22;36852;45.466;11.066;2023-07-22T02:41:03;24.40;99.90
23347;DHT22;36852;45.466;11.066;2023-07-22T02:43:33;24.40;99.90
23347;DHT22;36852;45.466;11.066;2023-07-22T02:46:04;24.50;99.90
23347;DHT22;36852;45.466;11.066;2023-07-22T02:48:34;24.40;99.90
23347;DHT22;36852;45.466;11.066;2023-07-22T02:51:08;24.40;99.90
23347;DHT22;36852;45.466;11.066;2023-07-22T02:53:36;24.40;99.90
23347;DHT22;36852;45.466;11.066;2023-07-22T02:56:08;24.40;99.90
23347;DHT22;36852;45.466;11.066;2023-07-22T02:58:36;24.40;99.90
23347;DHT22;36852;45.466;11.066;2023-07-22T03:01:05;24.40;99.90
23347;DHT22;36852;45.466;11.066;2023-07-22T03:03:35;24.40;99.90
23347;DHT22;36852;45.466;11.066;2023-07-22T03:06:04;24.30;99.90
23347;DHT22;36852;45.466;11.066;2023-07-22T03:08:32;24.30;99.90
23347;DHT22;36852;45.466;11.066;2023-07-22T03:11:00;24.30;99.90
23347;DHT22;36852;45.466;11.066;2023-07-22T03:13:33;24.30;99.90
23347;DHT22;36852;45.466;11.066;2023-07-22T03:16:03;24.30;99.90
23347;DHT22;36852;45.466;11.066;2023-07-22T03:18:34;24.30;99.90
23347;DHT22;36852;45.466;11.066;2023-07-22T03:21:01;24.30;99.90
23347;DHT22;36852;45.466;11.066;2023-07-22T03:23:30;24.30;99.90
23347;DHT22;36852;45.466;11.066;2023-07-22T03:25:58;24.30;99.90
23347;DHT22;36852;45.466;11.066;2023-07-22T03:28:28;24.30;99.90
23347;DHT22;36852;45.466;11.066;2023-07-22T03:30:57;24.30;99.90
23347;DHT22;36852;45.466;11.066;2023-07-22T03:33:26;24.20;99.90
23347;DHT22;36852;45.466;11.066;2023-07-22T03:35:54;24.30;99.90
23347;DHT22;36852;45.466;11.066;2023-07-22T03:38:22;24.30;99.90
23347;DHT22;36852;45.466;11.066;2023-07-22T03:40:50;24.30;99.90
23347;DHT22;36852;45.466;11.066;2023-07-22T03:43:20;24.30;99.90
23347;DHT22;36852;45.466;11.066;2023-07-22T03:45:48;24.30;99.90
23347;DHT22;36852;45.466;11.066;2023-07-22T03:48:16;24.30;99.90
23347;DHT22;36852;45.466;11.066;2023-07-22T03:50:44;24.30;99.90
23347;DHT22;36852;45.466;11.066;2023-07-22T03:53:13;24.30;99.90
23347;DHT22;36852;45.466;11.066;2023-07-22T03:55:41;24.30;99.90
23347;DHT22;36852;45.466;11.066;2023-07-22T03:58:09;24.30;99.90
23347;DHT22;36852;45.466;11.066;2023-07-22T04:00:38;24.30;99.90
23347;DHT22;36852;45.466;11.066;2023-07-22T04:03:06;24.30;99.90
23347;DHT22;36852;45.466;11.066;2023-07-22T04:05:35;24.30;99.90
23347;DHT22;36852;45.466;11.066;2023-07-22T04:08:04;24.30;99.90
23347;DHT22;36852;45.466;11.066;2023-07-22T04:10:32;24.30;99.90
23347;DHT22;36852;45.466;11.066;2023-07-22T04:13:01;24.30;99.90
23347;DHT22;36852;45.466;11.066;2023-07-22T04:15:30;24.30;99.90
23347;DHT22;36852;45.466;11.066;2023-07-22T04:18:00;24.20;99.90
23347;DHT22;36852;45.466;11.066;2023-07-22T04:20:28;24.20;99.90
23347;DHT22;36852;45.466;11.066;2023-07-22T04:22:56;24.30;99.90
23347;DHT22;36852;45.466;11.066;2023-07-22T04:25:24;24.30;99.90
23347;DHT22;36852;45.466;11.066;2023-07-22T04:27:52;24.30;99.90
23347;DHT22;36852;45.466;11.066;2023-07-22T04:30:20;24.30;99.90
23347;DHT22;36852;45.466;11.066;2023-07-22T04:32:48;24.20;99.90
23347;DHT22;36852;45.466;11.066;2023-07-22T04:35:19;24.30;99.90
23347;DHT22;36852;45.466;11.066;2023-07-22T04:37:47;24.20;99.90
23347;DHT22;36852;45.466;11.066;2023-07-22T04:40:16;24.30;99.90
23347;DHT22;36852;45.466;11.066;2023-07-22T04:42:45;24.30;99.90
23347;DHT22;36852;45.466;11.066;2023-07-22T04:45:13;24.30;99.90
23347;DHT22;36852;45.466;11.066;2023-07-22T04:47:41;24.30;99.90
23347;DHT22;36852;45.466;11.066;2023-07-22T04:50:11;24.30;99.90
23347;DHT22;36852;45.466;11.066;2023-07-22T04:52:41;24.30;99.90
23347;DHT22;36852;45.466;11.066;2023-07-22T04:55:09;24.40;99.90
23347;DHT22;36852;45.466;11.066;2023-07-22T04:57:39;24.40;99.90
23347;DHT22;36852;45.466;11.066;2023-07-22T05:00:08;24.40;99.90
23347;DHT22;36852;45.466;11.066;2023-07-22T05:02:42;24.40;99.90
23347;DHT22;36852;45.466;11.066;2023-07-22T05:05:16;24.40;99.90
23347;DHT22;36852;45.466;11.066;2023-07-22T05:07:44;24.40;99.90
23347;DHT22;36852;45.466;11.066;2023-07-22T05:10:13;24.40;99.90
23347;DHT22;36852;45.466;11.066;2023-07-22T05:12:42;24.50;99.90
23347;DHT22;36852;45.466;11.066;2023-07-22T05:15:11;24.50;99.90
23347;DHT22;36852;45.466;11.066;2023-07-22T05:17:39;24.50;99.90
23347;DHT22;36852;45.466;11.066;2023-07-22T05:20:08;24.50;99.90
23347;DHT22;36852;45.466;11.066;2023-07-22T05:22:40;24.60;99.90
23347;DHT22;36852;45.466;11.066;2023-07-22T05:25:08;24.70;99.90
23347;DHT22;36852;45.466;11.066;2023-07-22T05:27:37;24.70;99.90
23347;DHT22;36852;45.466;11.066;2023-07-22T05:30:06;24.70;99.90
23347;DHT22;36852;45.466;11.066;2023-07-22T05:32:39;24.70;99.90
23347;DHT22;36852;45.466;11.066;2023-07-22T05:35:09;24.70;99.90
23347;DHT22;36852;45.466;11.066;2023-07-22T05:37:37;24.80;99.90
23347;DHT22;36852;45.466;11.066;2023-07-22T05:40:07;24.80;99.90
23347;DHT22;36852;45.466;11.066;2023-07-22T05:42:35;24.90;99.90
23347;DHT22;36852;45.466;11.066;2023-07-22T05:45:05;24.90;99.90
23347;DHT22;36852;45.466;11.066;2023-07-22T05:47:33;25.00;99.90
23347;DHT22;36852;45.466;11.066;2023-07-22T05:50:05;25.00;99.90
23347;DHT22;36852;45.466;11.066;2023-07-22T05:52:33;25.00;99.90
23347;DHT22;36852;45.466;11.066;2023-07-22T05:55:02;25.10;99.90
23347;DHT22;36852;45.466;11.066;2023-07-22T05:57:30;25.10;99.90
23347;DHT22;36852;45.466;11.066;2023-07-22T05:59:58;25.10;99.90
23347;DHT22;36852;45.466;11.066;2023-07-22T06:02:30;25.10;99.90
23347;DHT22;36852;45.466;11.066;2023-07-22T06:04:59;25.20;99.90
23347;DHT22;36852;45.466;11.066;2023-07-22T06:07:29;25.20;99.90
23347;DHT22;36852;45.466;11.066;2023-07-22T06:09:58;25.20;99.90
23347;DHT22;36852;45.466;11.066;2023-07-22T06:12:26;25.30;99.90
23347;DHT22;36852;45.466;11.066;2023-07-22T06:14:56;25.30;99.90
23347;DHT22;36852;45.466;11.066;2023-07-22T06:17:24;25.30;99.90
23347;DHT22;36852;45.466;11.066;2023-07-22T06:19:52;25.40;99.90
23347;DHT22;36852;45.466;11.066;2023-07-22T06:22:20;25.50;99.90
23347;DHT22;36852;45.466;11.066;2023-07-22T06:24:50;25.50;99.90
23347;DHT22;36852;45.466;11.066;2023-07-22T06:27:19;25.50;99.90
23347;DHT22;36852;45.466;11.066;2023-07-22T06:29:47;25.60;99.90
23347;DHT22;36852;45.466;11.066;2023-07-22T06:32:14;25.70;99.90
23347;DHT22;36852;45.466;11.066;2023-07-22T06:34:43;25.80;99.90
23347;DHT22;36852;45.466;11.066;2023-07-22T06:37:11;25.90;99.90
23347;DHT22;36852;45.466;11.066;2023-07-22T06:39:40;25.90;99.90
23347;DHT22;36852;45.466;11.066;2023-07-22T06:42:08;26.00;99.90
23347;DHT22;36852;45.466;11.066;2023-07-22T06:44:36;26.10;99.90
23347;DHT22;36852;45.466;11.066;2023-07-22T06:47:04;26.20;99.90
23347;DHT22;36852;45.466;11.066;2023-07-22T06:49:33;26.30;99.90
23347;DHT22;36852;45.466;11.066;2023-07-22T06:52:02;26.40;99.90
23347;DHT22;36852;45.466;11.066;2023-07-22T06:54:30;26.50;99.90
23347;DHT22;36852;45.466;11.066;2023-07-22T06:56:59;26.50;99.90
23347;DHT22;36852;45.466;11.066;2023-07-22T06:59:27;26.60;99.90
23347;DHT22;36852;45.466;11.066;2023-07-22T07:01:56;26.60;99.90
23347;DHT22;36852;45.466;11.066;2023-07-22T07:04:24;26.70;99.90
23347;DHT22;36852;45.466;11.066;2023-07-22T07:06:52;26.70;99.90
23347;DHT22;36852;45.466;11.066;2023-07-22T07:09:21;26.80;99.90
23347;DHT22;36852;45.466;11.066;2023-07-22T07:11:49;26.80;99.90
23347;DHT22;36852;45.466;11.066;2023-07-22T07:14:18;26.80;99.90
23347;DHT22;36852;45.466;11.066;2023-07-22T07:16:46;26.90;99.90
23347;DHT22;36852;45.466;11.066;2023-07-22T07:19:14;26.90;99.90
23347;DHT22;36852;45.466;11.066;2023-07-22T07:21:42;27.00;99.90
23347;DHT22;36852;45.466;11.066;2023-07-22T07:24:09;27.10;99.90
23347;DHT22;36852;45.466;11.066;2023-07-22T07:26:37;27.20;99.90
23347;DHT22;36852;45.466;11.066;2023-07-22T07:29:05;27.20;99.90
23347;DHT22;36852;45.466;11.066;2023-07-22T07:31:33;27.30;99.90
23347;DHT22;36852;45.466;11.066;2023-07-22T07:34:02;27.40;99.90
23347;DHT22;36852;45.466;11.066;2023-07-22T07:36:33;27.50;99.90
23347;DHT22;36852;45.466;11.066;2023-07-22T07:39:02;27.40;99.90
23347;DHT22;36852;45.466;11.066;2023-07-22T07:41:31;27.40;99.90
23347;DHT22;36852;45.466;11.066;2023-07-22T07:44:00;27.40;99.90
23347;DHT22;36852;45.466;11.066;2023-07-22T07:46:28;27.40;99.90
23347;DHT22;36852;45.466;11.066;2023-07-22T07:48:59;27.40;99.90
23347;DHT22;36852;45.466;11.066;2023-07-22T07:51:31;27.50;99.90
23347;DHT22;36852;45.466;11.066;2023-07-22T07:53:59;27.50;99.90
23347;DHT22;36852;45.466;11.066;2023-07-22T07:56:27;27.60;99.90
23347;DHT22;36852;45.466;11.066;2023-07-22T07:58:55;27.60;99.90
23347;DHT22;36852;45.466;11.066;2023-07-22T08:01:23;27.60;99.90
23347;DHT22;36852;45.466;11.066;2023-07-22T08:03:51;27.60;99.90
23347;DHT22;36852;45.466;11.066;2023-07-22T08:06:19;27.50;99.90
23347;DHT22;36852;45.466;11.066;2023-07-22T08:08:47;27.50;99.90
23347;DHT22;36852;45.466;11.066;2023-07-22T08:11:15;27.50;99.90
23347;DHT22;36852;45.466;11.066;2023-07-22T08:13:44;27.50;99.90
23347;DHT22;36852;45.466;11.066;2023-07-22T08:16:13;27.50;99.90
23347;DHT22;36852;45.466;11.066;2023-07-22T08:18:43;27.60;99.90
23347;DHT22;36852;45.466;11.066;2023-07-22T08:21:11;27.50;99.90
23347;DHT22;36852;45.466;11.066;2023-07-22T08:23:39;27.50;99.90
23347;DHT22;36852;45.466;11.066;2023-07-22T08:26:06;27.50;99.90
23347;DHT22;36852;45.466;11.066;2023-07-22T08:28:34;27.60;99.90
23347;DHT22;36852;45.466;11.066;2023-07-22T08:31:02;27.70;99.90
23347;DHT22;36852;45.466;11.066;2023-07-22T08:33:30;27.70;99.90
23347;DHT22;36852;45.466;11.066;2023-07-22T08:36:02;27.70;99.90
23347;DHT22;36852;45.466;11.066;2023-07-22T08:38:32;27.70;99.90
23347;DHT22;36852;45.466;11.066;2023-07-22T08:40:59;27.80;99.90
23347;DHT22;36852;45.466;11.066;2023-07-22T08:43:28;27.70;99.90
23347;DHT22;36852;45.466;11.066;2023-07-22T08:45:59;27.70;99.90
23347;DHT22;36852;45.466;11.066;2023-07-22T08:48:30;27.70;99.90
23347;DHT22;36852;45.466;11.066;2023-07-22T08:51:09;27.80;99.90
23347;DHT22;36852;45.466;11.066;2023-07-22T08:53:46;27.80;99.90
23347;DHT22;36852;45.466;11.066;2023-07-22T08:56:16;27.90;99.90
23347;DHT22;36852;45.466;11.066;2023-07-22T08:58:45;27.90;99.90
23347;DHT22;36852;45.466;11.066;2023-07-22T09:01:13;28.00;99.90
23347;DHT22;36852;45.466;11.066;2023-07-22T09:03:41;28.10;99.90
23347;DHT22;36852;45.466;11.066;2023-07-22T09:06:10;28.30;99.90
23347;DHT22;36852;45.466;11.066;2023-07-22T09:08:38;28.30;99.90
23347;DHT22;36852;45.466;11.066;2023-07-22T09:11:07;28.40;99.90
23347;DHT22;36852;45.466;11.066;2023-07-22T09:13:36;28.50;99.90
23347;DHT22;36852;45.466;11.066;2023-07-22T09:16:06;28.50;99.90
23347;DHT22;36852;45.466;11.066;2023-07-22T09:18:35;28.40;99.90
23347;DHT22;36852;45.466;11.066;2023-07-22T09:21:03;28.40;99.90
23347;DHT22;36852;45.466;11.066;2023-07-22T09:23:38;28.30;99.90
23347;DHT22;36852;45.466;11.066;2023-07-22T09:26:13;28.30;99.90
23347;DHT22;36852;45.466;11.066;2023-07-22T09:31:22;28.40;99.90
23347;DHT22;36852;45.466;11.066;2023-07-22T09:34:10;28.60;99.90
23347;DHT22;36852;45.466;11.066;2023-07-22T09:36:55;28.60;99.90
23347;DHT22;36852;45.466;11.066;2023-07-22T09:39:24;28.70;99.90
23347;DHT22;36852;45.466;11.066;2023-07-22T09:41:52;28.70;99.90
23347;DHT22;36852;45.466;11.066;2023-07-22T09:44:22;28.80;99.90
23347;DHT22;36852;45.466;11.066;2023-07-22T09:46:49;28.90;99.90
23347;DHT22;36852;45.466;11.066;2023-07-22T09:49:18;29.00;99.90
23347;DHT22;36852;45.466;11.066;2023-07-22T09:51:46;29.10;99.90
23347;DHT22;36852;45.466;11.066;2023-07-22T09:54:19;29.10;99.90
23347;DHT22;36852;45.466;11.066;2023-07-22T09:56:49;29.10;99.90
23347;DHT22;36852;45.466;11.066;2023-07-22T09:59:18;29.00;99.90
23347;DHT22;36852;45.466;11.066;2023-07-22T10:01:46;29.00;99.90
23347;DHT22;36852;45.466;11.066;2023-07-22T10:04:16;28.80;99.90
23347;DHT22;36852;45.466;11.066;2023-07-22T10:06:44;28.70;99.90
23347;DHT22;36852;45.466;11.066;2023-07-22T10:09:13;28.70;99.90
23347;DHT22;36852;45.466;11.066;2023-07-22T10:11:43;28.50;99.90
23347;DHT22;36852;45.466;11.066;2023-07-22T10:14:11;28.40;99.90
23347;DHT22;36852;45.466;11.066;2023-07-22T10:16:42;28.30;99.90
23347;DHT22;36852;45.466;11.066;2023-07-22T10:19:11;28.20;99.90
23347;DHT22;36852;45.466;11.066;2023-07-22T10:21:39;28.20;99.90
23347;DHT22;36852;45.466;11.066;2023-07-22T10:24:07;28.10;99.90
23347;DHT22;36852;45.466;11.066;2023-07-22T10:26:39;28.00;99.90
23347;DHT22;36852;45.466;11.066;2023-07-22T10:29:10;28.00;99.90
23347;DHT22;36852;45.466;11.066;2023-07-22T10:31:38;27.90;99.90
23347;DHT22;36852;45.466;11.066;2023-07-22T10:34:05;27.90;99.90
23347;DHT22;36852;45.466;11.066;2023-07-22T10:36:34;27.80;99.90
23347;DHT22;36852;45.466;11.066;2023-07-22T10:39:03;27.80;99.90
23347;DHT22;36852;45.466;11.066;2023-07-22T10:41:32;27.70;99.90
23347;DHT22;36852;45.466;11.066;2023-07-22T10:44:02;27.60;99.90
23347;DHT22;36852;45.466;11.066;2023-07-22T10:46:37;27.60;99.90
23347;DHT22;36852;45.466;11.066;2023-07-22T10:49:16;27.40;99.90
23347;DHT22;36852;45.466;11.066;2023-07-22T10:51:50;27.40;99.90
23347;DHT22;36852;45.466;11.066;2023-07-22T10:54:33;27.30;99.90
23347;DHT22;36852;45.466;11.066;2023-07-22T10:59:50;27.10;99.90
23347;DHT22;36852;45.466;11.066;2023-07-22T11:02:26;27.10;99.90
23347;DHT22;36852;45.466;11.066;2023-07-22T11:04:59;26.90;99.90
23347;DHT22;36852;45.466;11.066;2023-07-22T11:07:44;26.80;99.90
23347;DHT22;36852;45.466;11.066;2023-07-22T11:10:16;26.70;99.90
23347;DHT22;36852;45.466;11.066;2023-07-22T11:12:46;26.60;99.90
23347;DHT22;36852;45.466;11.066;2023-07-22T11:15:16;26.60;99.90
23347;DHT22;36852;45.466;11.066;2023-07-22T11:17:46;26.60;99.90
23347;DHT22;36852;45.466;11.066;2023-07-22T11:20:17;26.60;99.90
23347;DHT22;36852;45.466;11.066;2023-07-22T11:22:45;26.60;99.90
23347;DHT22;36852;45.466;11.066;2023-07-22T11:25:19;26.50;99.90
23347;DHT22;36852;45.466;11.066;2023-07-22T11:27:47;26.40;99.90
23347;DHT22;36852;45.466;11.066;2023-07-22T11:30:15;26.40;99.90
23347;DHT22;36852;45.466;11.066;2023-07-22T11:32:43;26.40;99.90
23347;DHT22;36852;45.466;11.066;2023-07-22T11:35:15;26.50;99.90
23347;DHT22;36852;45.466;11.066;2023-07-22T11:37:44;26.60;99.90
23347;DHT22;36852;45.466;11.066;2023-07-22T11:40:12;26.70;99.90
23347;DHT22;36852;45.466;11.066;2023-07-22T11:42:41;26.70;99.90
23347;DHT22;36852;45.466;11.066;2023-07-22T11:45:12;26.60;99.90
23347;DHT22;36852;45.466;11.066;2023-07-22T11:47:40;26.50;99.90
23347;DHT22;36852;45.466;11.066;2023-07-22T11:50:08;26.30;99.90
23347;DHT22;36852;45.466;11.066;2023-07-22T11:52:36;26.30;99.90
23347;DHT22;36852;45.466;11.066;2023-07-22T11:55:05;26.40;99.90
23347;DHT22;36852;45.466;11.066;2023-07-22T11:57:38;26.60;99.90
23347;DHT22;36852;45.466;11.066;2023-07-22T12:00:08;26.80;99.90
23347;DHT22;36852;45.466;11.066;2023-07-22T12:02:36;27.00;99.90
23347;DHT22;36852;45.466;11.066;2023-07-22T12:05:05;27.20;99.90
23347;DHT22;36852;45.466;11.066;2023-07-22T12:07:35;27.40;99.90
23347;DHT22;36852;45.466;11.066;2023-07-22T12:10:10;27.60;99.90
23347;DHT22;36852;45.466;11.066;2023-07-22T12:12:42;27.70;99.90
23347;DHT22;36852;45.466;11.066;2023-07-22T12:15:20;27.80;99.90
23347;DHT22;36852;45.466;11.066;2023-07-22T12:17:57;28.00;99.90
23347;DHT22;36852;45.466;11.066;2023-07-22T12:20:27;28.10;99.90
23347;DHT22;36852;45.466;11.066;2023-07-22T12:22:55;28.10;99.90
23347;DHT22;36852;45.466;11.066;2023-07-22T12:25:23;28.30;99.90
23347;DHT22;36852;45.466;11.066;2023-07-22T12:27:54;28.40;99.90
23347;DHT22;36852;45.466;11.066;2023-07-22T12:30:22;28.60;99.90
23347;DHT22;36852;45.466;11.066;2023-07-22T12:32:51;28.70;99.90
23347;DHT22;36852;45.466;11.066;2023-07-22T12:35:19;28.90;99.90
23347;DHT22;36852;45.466;11.066;2023-07-22T12:37:47;29.00;99.90
23347;DHT22;36852;45.466;11.066;2023-07-22T12:40:14;29.10;99.90
23347;DHT22;36852;45.466;11.066;2023-07-22T12:42:42;29.20;99.90
23347;DHT22;36852;45.466;11.066;2023-07-22T12:45:14;29.40;99.90
23347;DHT22;36852;45.466;11.066;2023-07-22T12:47:42;29.40;99.90
23347;DHT22;36852;45.466;11.066;2023-07-22T12:50:10;29.60;99.90
23347;DHT22;36852;45.466;11.066;2023-07-22T12:52:39;29.70;99.90
23347;DHT22;36852;45.466;11.066;2023-07-22T12:55:07;29.80;99.80
23347;DHT22;36852;45.466;11.066;2023-07-22T12:57:35;29.80;99.90
23347;DHT22;36852;45.466;11.066;2023-07-22T13:00:03;29.90;99.90
23347;DHT22;36852;45.466;11.066;2023-07-22T13:02:37;29.90;99.90
23347;DHT22;36852;45.466;11.066;2023-07-22T13:05:05;30.00;99.70
23347;DHT22;36852;45.466;11.066;2023-07-22T13:07:33;30.10;98.50
23347;DHT22;36852;45.466;11.066;2023-07-22T13:10:00;30.00;98.60
23347;DHT22;36852;45.466;11.066;2023-07-22T13:12:30;30.10;98.60
23347;DHT22;36852;45.466;11.066;2023-07-22T13:14:58;30.20;98.60
23347;DHT22;36852;45.466;11.066;2023-07-22T13:17:26;30.20;98.00
23347;DHT22;36852;45.466;11.066;2023-07-22T13:19:54;30.20;99.30
23347;DHT22;36852;45.466;11.066;2023-07-22T13:22:22;30.30;98.40
23347;DHT22;36852;45.466;11.066;2023-07-22T13:24:50;30.40;99.10
23347;DHT22;36852;45.466;11.066;2023-07-22T13:27:18;30.40;99.90
23347;DHT22;36852;45.466;11.066;2023-07-22T13:29:50;30.60;99.90
23347;DHT22;36852;45.466;11.066;2023-07-22T13:32:18;30.60;98.30
23347;DHT22;36852;45.466;11.066;2023-07-22T13:34:45;30.70;99.00
23347;DHT22;36852;45.466;11.066;2023-07-22T13:37:13;30.70;99.20
23347;DHT22;36852;45.466;11.066;2023-07-22T13:39:41;30.80;98.10
23347;DHT22;36852;45.466;11.066;2023-07-22T13:42:09;30.90;98.30
23347;DHT22;36852;45.466;11.066;2023-07-22T13:44:36;30.90;97.80
23347;DHT22;36852;45.466;11.066;2023-07-22T13:47:06;31.00;96.80
23347;DHT22;36852;45.466;11.066;2023-07-22T13:49:34;31.00;97.40
23347;DHT22;36852;45.466;11.066;2023-07-22T13:52:02;31.10;98.60
23347;DHT22;36852;45.466;11.066;2023-07-22T13:54:30;31.20;97.60
23347;DHT22;36852;45.466;11.066;2023-07-22T13:57:00;31.20;96.70
23347;DHT22;36852;45.466;11.066;2023-07-22T13:59:27;31.30;97.70
23347;DHT22;36852;45.466;11.066;2023-07-22T14:01:55;31.30;96.20
23347;DHT22;36852;45.466;11.066;2023-07-22T14:04:24;31.40;95.70
23347;DHT22;36852;45.466;11.066;2023-07-22T14:06:51;31.50;95.70
23347;DHT22;36852;45.466;11.066;2023-07-22T14:09:18;31.40;94.30
23347;DHT22;36852;45.466;11.066;2023-07-22T14:11:47;31.40;95.10
23347;DHT22;36852;45.466;11.066;2023-07-22T14:14:14;31.40;95.60
23347;DHT22;36852;45.466;11.066;2023-07-22T14:16:42;31.50;96.30
23347;DHT22;36852;45.466;11.066;2023-07-22T14:19:10;31.50;96.10
23347;DHT22;36852;45.466;11.066;2023-07-22T14:21:37;31.50;94.90
23347;DHT22;36852;45.466;11.066;2023-07-22T14:24:07;31.50;95.40
23347;DHT22;36852;45.466;11.066;2023-07-22T14:26:38;31.50;95.50
23347;DHT22;36852;45.466;11.066;2023-07-22T14:29:05;31.60;96.40
23347;DHT22;36852;45.466;11.066;2023-07-22T14:31:34;31.70;97.00
23347;DHT22;36852;45.466;11.066;2023-07-22T14:34:02;31.80;96.00
23347;DHT22;36852;45.466;11.066;2023-07-22T14:36:30;31.80;95.10
23347;DHT22;36852;45.466;11.066;2023-07-22T14:38:57;31.90;95.20
23347;DHT22;36852;45.466;11.066;2023-07-22T14:41:25;31.90;94.00
23347;DHT22;36852;45.466;11.066;2023-07-22T14:43:54;31.90;93.60
23347;DHT22;36852;45.466;11.066;2023-07-22T14:46:22;32.00;94.30
23347;DHT22;36852;45.466;11.066;2023-07-22T14:48:54;32.10;94.60
23347;DHT22;36852;45.466;11.066;2023-07-22T14:51:21;32.10;93.70
23347;DHT22;36852;45.466;11.066;2023-07-22T14:53:51;32.10;93.40
23347;DHT22;36852;45.466;11.066;2023-07-22T14:56:19;32.10;92.90
23347;DHT22;36852;45.466;11.066;2023-07-22T14:58:47;32.20;92.60
23347;DHT22;36852;45.466;11.066;2023-07-22T15:01:17;32.20;92.30
23347;DHT22;36852;45.466;11.066;2023-07-22T15:03:45;32.20;92.70
23347;DHT22;36852;45.466;11.066;2023-07-22T15:06:13;32.20;91.70
23347;DHT22;36852;45.466;11.066;2023-07-22T15:08:43;32.30;92.10
23347;DHT22;36852;45.466;11.066;2023-07-22T15:11:10;32.40;91.60
23347;DHT22;36852;45.466;11.066;2023-07-22T15:13:38;32.30;91.90
23347;DHT22;36852;45.466;11.066;2023-07-22T15:16:06;32.30;92.40
23347;DHT22;36852;45.466;11.066;2023-07-22T15:18:34;32.40;92.70
23347;DHT22;36852;45.466;11.066;2023-07-22T15:21:02;32.50;92.50
23347;DHT22;36852;45.466;11.066;2023-07-22T15:23:31;32.60;92.20
23347;DHT22;36852;45.466;11.066;2023-07-22T15:25:59;32.80;91.90
23347;DHT22;36852;45.466;11.066;2023-07-22T15:28:27;33.00;91.50
23347;DHT22;36852;45.466;11.066;2023-07-22T15:30:55;33.20;91.30
23347;DHT22;36852;45.466;11.066;2023-07-22T15:33:23;33.30;91.90